sensor_id;sensor_type;location;lat;lon;timestamp;pressure;altitude;pressure_sealevel;temperature;humidity
23118;BME280;11728;50.624;6.014;2023-03-14T00:02:58;95974.75;;;11.72;82.02
23118;BME280;11728;50.624;6.014;2023-03-14T00:07:59;95970.22;;;11.74;82.15
23118;BME280;11728;50.624;6.014;2023-03-14T00:12:59;95997.41;;;11.76;82.29
23118;BME280;11728;50.624;6.014;2023-03-14T00:18:00;96014.44;;;11.58;85.08
23118;BME280;11728;50.624;6.014;2023-03-14T00:23:00;96046.47;;;11.10;90.50
23118;BME280;11728;50.624;6.014;2023-03-14T00:28:00;96055.47;;;10.49;94.30
23118;BME280;11728;50.624;6.014;2023-03-14T00:33:01;96033.63;;;10.02;97.59
23118;BME280;11728;50.624;6.014;2023-03-14T00:38:01;96030.13;;;9.71;99.59
23118;BME280;11728;50.624;6.014;2023-03-14T00:43:01;96001.91;;;9.58;100.00
23118;BME280;11728;50.624;6.014;2023-03-14T00:48:02;96006.81;;;9.48;100.00
23118;BME280;11728;50.624;6.014;2023-03-14T00:53:02;96002.56;;;9.46;100.00
23118;BME280;11728;50.624;6.014;2023-03-14T00:58:02;96018.63;;;9.41;100.00
23118;BME280;11728;50.624;6.014;2023-03-14T01:03:03;96009.38;;;9.34;100.00
23118;BME280;11728;50.624;6.014;2023-03-14T01:08:04;95998.47;;;9.25;100.00
23118;BME280;11728;50.624;6.014;2023-03-14T01:13:05;95990.16;;;9.17;100.00
23118;BME280;11728;50.624;6.014;2023-03-14T01:18:05;95973.53;;;9.17;100.00
23118;BME280;11728;50.624;6.014;2023-03-14T01:23:06;95988.28;;;9.19;100.00
23118;BME280;11728;50.624;6.014;2023-03-14T01:28:06;95967.91;;;9.22;100.00
23118;BME280;11728;50.624;6.014;2023-03-14T01:33:07;95966.31;;;9.20;100.00
23118;BME280;11728;50.624;6.014;2023-03-14T01:38:07;95977.06;;;9.16;100.00
23118;BME280;11728;50.624;6.014;2023-03-14T01:43:19;95968.75;;;9.23;100.00
23118;BME280;11728;50.624;6.014;2023-03-14T01:48:20;95977.06;;;9.16;100.00
23118;BME280;11728;50.624;6.014;2023-03-14T01:53:21;95973.28;;;9.21;100.00
23118;BME280;11728;50.624;6.014;2023-03-14T01:58:24;95971.22;;;9.41;100.00
23118;BME280;11728;50.624;6.014;2023-03-14T02:03:27;95955.25;;;9.60;100.00
23118;BME280;11728;50.624;6.014;2023-03-14T02:08:29;95959.91;;;9.70;100.00
23118;BME280;11728;50.624;6.014;2023-03-14T02:13:29;95949.63;;;9.81;100.00
23118;BME280;11728;50.624;6.014;2023-03-14T02:18:30;95942.22;;;9.88;100.00
23118;BME280;11728;50.624;6.014;2023-03-14T02:28:32;95927.66;;;9.96;100.00
23118;BME280;11728;50.624;6.014;2023-03-14T02:33:32;95934.56;;;9.98;100.00
23118;BME280;11728;50.624;6.014;2023-03-14T02:39:04;95921.28;;;10.00;100.00
23118;BME280;11728;50.624;6.014;2023-03-14T02:44:07;95920.84;;;9.92;100.00
23118;BME280;11728;50.624;6.014;2023-03-14T02:49:10;95906.16;;;9.88;100.00
23118;BME280;11728;50.624;6.014;2023-03-14T02:54:12;95899.19;;;9.87;100.00
23118;BME280;11728;50.624;6.014;2023-03-14T02:59:14;95899.38;;;9.84;100.00
23118;BME280;11728;50.624;6.014;2023-03-14T03:04:14;95889.56;;;9.86;100.00
23118;BME280;11728;50.624;6.014;2023-03-14T03:09:15;95884.56;;;9.82;100.00
23118;BME280;11728;50.624;6.014;2023-03-14T03:14:15;95899.56;;;9.81;100.00
23118;BME280;11728;50.624;6.014;2023-03-14T03:19:15;95895.22;;;9.80;100.00
23118;BME280;11728;50.624;6.014;2023-03-14T03:24:17;95892.56;;;9.80;100.00
23118;BME280;11728;50.624;6.014;2023-03-14T03:29:18;95892.94;;;9.74;100.00
23118;BME280;11728;50.624;6.014;2023-03-14T03:34:18;95877.91;;;9.61;100.00
23118;BME280;11728;50.624;6.014;2023-03-14T03:39:19;95885.16;;;9.57;100.00
23118;BME280;11728;50.624;6.014;2023-03-14T03:44:19;95875.81;;;9.52;100.00
23118;BME280;11728;50.624;6.014;2023-03-14T03:49:19;95874.28;;;9.48;100.00
23118;BME280;11728;50.624;6.014;2023-03-14T03:54:20;95847.28;;;9.44;100.00
23118;BME280;11728;50.624;6.014;2023-03-14T03:59:20;95850.19;;;9.40;100.00
23118;BME280;11728;50.624;6.014;2023-03-14T04:04:21;95854.94;;;9.33;100.00
23118;BME280;11728;50.624;6.014;2023-03-14T04:09:21;95841.03;;;9.31;100.00
23118;BME280;11728;50.624;6.014;2023-03-14T04:14:22;95827.09;;;9.29;100.00
23118;BME280;11728;50.624;6.014;2023-03-14T04:19:23;95835.09;;;9.28;100.00
23118;BME280;11728;50.624;6.014;2023-03-14T04:24:23;95843.72;;;9.30;100.00
23118;BME280;11728;50.624;6.014;2023-03-14T04:29:24;95837.38;;;9.34;100.00
23118;BME280;11728;50.624;6.014;2023-03-14T04:34:24;95832.78;;;9.37;100.00
23118;BME280;11728;50.624;6.014;2023-03-14T04:39:24;95831.84;;;9.38;100.00
23118;BME280;11728;50.624;6.014;2023-03-14T04:44:25;95837.47;;;9.32;100.00
23118;BME280;11728;50.624;6.014;2023-03-14T04:49:25;95836.84;;;9.27;100.00
23118;BME280;11728;50.624;6.014;2023-03-14T04:54:25;95837.88;;;9.25;100.00
23118;BME280;11728;50.624;6.014;2023-03-14T04:59:26;95826.84;;;9.18;100.00
23118;BME280;11728;50.624;6.014;2023-03-14T05:04:26;95837.47;;;9.17;100.00
23118;BME280;11728;50.624;6.014;2023-03-14T05:09:27;95829.66;;;9.16;100.00
23118;BME280;11728;50.624;6.014;2023-03-14T05:14:27;95811.25;;;9.16;100.00
23118;BME280;11728;50.624;6.014;2023-03-14T05:19:28;95809.69;;;9.12;100.00
23118;BME280;11728;50.624;6.014;2023-03-14T05:24:28;95802.00;;;9.09;100.00
23118;BME280;11728;50.624;6.014;2023-03-14T05:29:28;95789.75;;;9.08;100.00
23118;BME280;11728;50.624;6.014;2023-03-14T05:34:29;95786.34;;;9.06;100.00
23118;BME280;11728;50.624;6.014;2023-03-14T05:39:29;95784.41;;;9.09;100.00
23118;BME280;11728;50.624;6.014;2023-03-14T05:44:30;95780.75;;;9.12;100.00
23118;BME280;11728;50.624;6.014;2023-03-14T05:49:30;95786.63;;;9.17;100.00
23118;BME280;11728;50.624;6.014;2023-03-14T05:54:30;95780.41;;;9.18;100.00
23118;BME280;11728;50.624;6.014;2023-03-14T05:59:31;95778.53;;;9.19;100.00
23118;BME280;11728;50.624;6.014;2023-03-14T06:04:31;95786.06;;;9.25;100.00
23118;BME280;11728;50.624;6.014;2023-03-14T06:09:32;95788.53;;;9.28;100.00
23118;BME280;11728;50.624;6.014;2023-03-14T06:14:32;95790.06;;;9.32;100.00
23118;BME280;11728;50.624;6.014;2023-03-14T06:19:32;95798.34;;;9.40;100.00
23118;BME280;11728;50.624;6.014;2023-03-14T06:24:32;95808.53;;;9.46;100.00
23118;BME280;11728;50.624;6.014;2023-03-14T06:29:33;95810.25;;;9.47;100.00
23118;BME280;11728;50.624;6.014;2023-03-14T06:34:33;95807.41;;;9.50;100.00
23118;BME280;11728;50.624;6.014;2023-03-14T06:39:34;95801.88;;;9.55;100.00
23118;BME280;11728;50.624;6.014;2023-03-14T06:44:34;95799.81;;;9.60;100.00
23118;BME280;11728;50.624;6.014;2023-03-14T06:49:35;95795.03;;;9.66;100.00
23118;BME280;11728;50.624;6.014;2023-03-14T06:54:35;95798.06;;;9.74;100.00
23118;BME280;11728;50.624;6.014;2023-03-14T06:59:35;95812.84;;;9.77;100.00
23118;BME280;11728;50.624;6.014;2023-03-14T07:04:36;95808.91;;;9.84;100.00
23118;BME280;11728;50.624;6.014;2023-03-14T07:09:36;95819.19;;;9.88;100.00
23118;BME280;11728;50.624;6.014;2023-03-14T07:14:36;95822.16;;;9.97;100.00
23118;BME280;11728;50.624;6.014;2023-03-14T07:19:37;95824.63;;;10.14;100.00
23118;BME280;11728;50.624;6.014;2023-03-14T07:24:38;95822.19;;;10.25;100.00
23118;BME280;11728;50.624;6.014;2023-03-14T07:29:38;95835.00;;;10.45;100.00
23118;BME280;11728;50.624;6.014;2023-03-14T07:34:38;95842.53;;;10.37;100.00
23118;BME280;11728;50.624;6.014;2023-03-14T07:39:39;95838.84;;;10.81;100.00
23118;BME280;11728;50.624;6.014;2023-03-14T07:44:40;95850.53;;;10.77;100.00
23118;BME280;11728;50.624;6.014;2023-03-14T07:49:40;95852.13;;;10.80;100.00
23118;BME280;11728;50.624;6.014;2023-03-14T07:54:40;95850.50;;;11.05;100.00
23118;BME280;11728;50.624;6.014;2023-03-14T07:59:41;95857.41;;;10.94;100.00
23118;BME280;11728;50.624;6.014;2023-03-14T08:04:41;95864.47;;;10.66;100.00
23118;BME280;11728;50.624;6.014;2023-03-14T08:09:41;95875.97;;;10.51;100.00
23118;BME280;11728;50.624;6.014;2023-03-14T08:14:42;95876.72;;;10.39;100.00
23118;BME280;11728;50.624;6.014;2023-03-14T08:19:42;95895.19;;;10.25;100.00
23118;BME280;11728;50.624;6.014;2023-03-14T08:24:43;95895.19;;;10.25;100.00
23118;BME280;11728;50.624;6.014;2023-03-14T08:29:43;95897.28;;;10.34;100.00
23118;BME280;11728;50.624;6.014;2023-03-14T08:34:43;95900.09;;;10.31;100.00
23118;BME280;11728;50.624;6.014;2023-03-14T08:39:44;95907.59;;;10.23;100.00
23118;BME280;11728;50.624;6.014;2023-03-14T08:44:44;95940.19;;;10.22;100.00
23118;BME280;11728;50.624;6.014;2023-03-14T08:49:45;95964.81;;;10.07;100.00
23118;BME280;11728;50.624;6.014;2023-03-14T08:54:46;96019.75;;;9.53;100.00
23118;BME280;11728;50.624;6.014;2023-03-14T08:59:46;96065.09;;;8.78;100.00
23118;BME280;11728;50.624;6.014;2023-03-14T09:04:46;96100.97;;;8.45;100.00
23118;BME280;11728;50.624;6.014;2023-03-14T09:09:47;96128.78;;;8.32;100.00
23118;BME280;11728;50.624;6.014;2023-03-14T09:14:47;96155.25;;;8.11;100.00
23118;BME280;11728;50.624;6.014;2023-03-14T09:19:47;96193.28;;;8.02;100.00
23118;BME280;11728;50.624;6.014;2023-03-14T09:24:48;96209.91;;;7.84;100.00
23118;BME280;11728;50.624;6.014;2023-03-14T09:29:48;96230.34;;;7.78;100.00
23118;BME280;11728;50.624;6.014;2023-03-14T09:34:48;96264.09;;;7.67;100.00
23118;BME280;11728;50.624;6.014;2023-03-14T09:39:49;96270.47;;;7.81;100.00
23118;BME280;11728;50.624;6.014;2023-03-14T09:44:53;96299.63;;;7.75;100.00
23118;BME280;11728;50.624;6.014;2023-03-14T09:49:55;96328.47;;;7.77;100.00
23118;BME280;11728;50.624;6.014;2023-03-14T09:55:01;96314.22;;;7.82;100.00
23118;BME280;11728;50.624;6.014;2023-03-14T10:00:10;96332.84;;;7.96;100.00
23118;BME280;11728;50.624;6.014;2023-03-14T10:05:20;96336.84;;;8.05;100.00
23118;BME280;11728;50.624;6.014;2023-03-14T10:10:23;96353.41;;;8.07;100.00
23118;BME280;11728;50.624;6.014;2023-03-14T10:15:31;96364.78;;;7.87;100.00
23118;BME280;11728;50.624;6.014;2023-03-14T10:20:38;96389.13;;;7.71;100.00
23118;BME280;11728;50.624;6.014;2023-03-14T10:25:41;96403.88;;;7.54;100.00
23118;BME280;11728;50.624;6.014;2023-03-14T10:30:45;96416.16;;;7.53;100.00
23118;BME280;11728;50.624;6.014;2023-03-14T10:40:56;96435.44;;;7.73;100.00
23118;BME280;11728;50.624;6.014;2023-03-14T10:46:01;96461.31;;;7.82;100.00
23118;BME280;11728;50.624;6.014;2023-03-14T10:51:29;96478.13;;;7.78;100.00
23118;BME280;11728;50.624;6.014;2023-03-14T10:56:34;96477.53;;;7.72;100.00
23118;BME280;11728;50.624;6.014;2023-03-14T11:07:09;96515.47;;;7.65;100.00
23118;BME280;11728;50.624;6.014;2023-03-14T11:12:40;96538.78;;;7.51;100.00
23118;BME280;11728;50.624;6.014;2023-03-14T11:17:54;96570.19;;;7.31;100.00
23118;BME280;11728;50.624;6.014;2023-03-14T11:23:08;96571.28;;;7.26;100.00
23118;BME280;11728;50.624;6.014;2023-03-14T11:28:22;96590.91;;;7.16;100.00
23118;BME280;11728;50.624;6.014;2023-03-14T11:33:37;96595.19;;;7.18;100.00
23118;BME280;11728;50.624;6.014;2023-03-14T11:38:49;96610.28;;;7.35;100.00
23118;BME280;11728;50.624;6.014;2023-03-14T11:43:55;96635.78;;;7.33;100.00
23118;BME280;11728;50.624;6.014;2023-03-14T11:49:05;96644.59;;;7.07;100.00
23118;BME280;11728;50.624;6.014;2023-03-14T11:59:38;96680.97;;;6.68;100.00
23118;BME280;11728;50.624;6.014;2023-03-14T12:10:03;96702.59;;;6.21;100.00
23118;BME280;11728;50.624;6.014;2023-03-14T12:15:05;96730.50;;;6.22;100.00
23118;BME280;11728;50.624;6.014;2023-03-14T12:20:18;96747.16;;;6.48;100.00
23118;BME280;11728;50.624;6.014;2023-03-14T12:25:28;96737.59;;;6.73;100.00
23118;BME280;11728;50.624;6.014;2023-03-14T12:30:39;96765.22;;;6.83;100.00
23118;BME280;11728;50.624;6.014;2023-03-14T12:35:45;96769.47;;;6.87;100.00
23118;BME280;11728;50.624;6.014;2023-03-14T12:41:03;96779.16;;;6.85;100.00
23118;BME280;11728;50.624;6.014;2023-03-14T12:46:08;96784.59;;;6.79;100.00
23118;BME280;11728;50.624;6.014;2023-03-14T12:51:20;96810.28;;;6.68;100.00
23118;BME280;11728;50.624;6.014;2023-03-14T12:56:56;96831.22;;;6.42;100.00
23118;BME280;11728;50.624;6.014;2023-03-14T13:07:11;96843.44;;;6.13;100.00
23118;BME280;11728;50.624;6.014;2023-03-14T13:12:14;96857.91;;;5.97;100.00
23118;BME280;11728;50.624;6.014;2023-03-14T13:17:28;96876.16;;;6.00;100.00
23118;BME280;11728;50.624;6.014;2023-03-14T13:22:33;96881.09;;;6.10;100.00
23118;BME280;11728;50.624;6.014;2023-03-14T13:27:35;96881.81;;;6.46;100.00
23118;BME280;11728;50.624;6.014;2023-03-14T13:32:41;96907.50;;;6.62;100.00
23118;BME280;11728;50.624;6.014;2023-03-14T13:37:41;96915.50;;;6.58;100.00
23118;BME280;11728;50.624;6.014;2023-03-14T13:42:42;96934.38;;;6.41;100.00
23118;BME280;11728;50.624;6.014;2023-03-14T13:47:42;96933.78;;;6.30;100.00
23118;BME280;11728;50.624;6.014;2023-03-14T13:52:43;96946.88;;;6.32;100.00
23118;BME280;11728;50.624;6.014;2023-03-14T13:57:48;96969.72;;;6.27;100.00
23118;BME280;11728;50.624;6.014;2023-03-14T14:02:49;96975.34;;;6.13;100.00
23118;BME280;11728;50.624;6.014;2023-03-14T14:07:51;96994.66;;;6.09;100.00
23118;BME280;11728;50.624;6.014;2023-03-14T14:12:59;97017.16;;;5.85;100.00
23118;BME280;11728;50.624;6.014;2023-03-14T14:18:04;97041.44;;;5.53;100.00
23118;BME280;11728;50.624;6.014;2023-03-14T14:23:10;97063.06;;;5.24;100.00
23118;BME280;11728;50.624;6.014;2023-03-14T14:33:28;97128.88;;;4.60;100.00
23118;BME280;11728;50.624;6.014;2023-03-14T14:38:29;97137.84;;;4.46;100.00
23118;BME280;11728;50.624;6.014;2023-03-14T14:43:34;97144.88;;;4.43;100.00
23118;BME280;11728;50.624;6.014;2023-03-14T14:48:37;97160.53;;;4.46;100.00
23118;BME280;11728;50.624;6.014;2023-03-14T14:53:43;97152.69;;;4.44;100.00
23118;BME280;11728;50.624;6.014;2023-03-14T14:58:45;97171.13;;;4.37;100.00
23118;BME280;11728;50.624;6.014;2023-03-14T15:03:47;97168.34;;;4.46;100.00
23118;BME280;11728;50.624;6.014;2023-03-14T15:08:49;97169.28;;;4.42;100.00
23118;BME280;11728;50.624;6.014;2023-03-14T15:13:51;97184.75;;;4.53;100.00
23118;BME280;11728;50.624;6.014;2023-03-14T15:18:56;97190.47;;;4.75;100.00
23118;BME280;11728;50.624;6.014;2023-03-14T15:23:56;97214.56;;;4.90;99.74
23118;BME280;11728;50.624;6.014;2023-03-14T15:28:56;97195.72;;;4.73;99.54
23118;BME280;11728;50.624;6.014;2023-03-14T15:33:57;97205.50;;;4.64;100.00
23118;BME280;11728;50.624;6.014;2023-03-14T15:38:58;97227.19;;;4.69;100.00
23118;BME280;11728;50.624;6.014;2023-03-14T15:43:59;97229.91;;;4.63;100.00
23118;BME280;11728;50.624;6.014;2023-03-14T15:48:59;97246.13;;;4.81;100.00
23118;BME280;11728;50.624;6.014;2023-03-14T15:53:59;97255.75;;;4.79;100.00
23118;BME280;11728;50.624;6.014;2023-03-14T15:59:00;97267.41;;;4.60;100.00
23118;BME280;11728;50.624;6.014;2023-03-14T16:04:00;97278.81;;;4.53;100.00
23118;BME280;11728;50.624;6.014;2023-03-14T16:09:02;97292.81;;;4.51;100.00
23118;BME280;11728;50.624;6.014;2023-03-14T16:14:04;97301.53;;;4.52;100.00
23118;BME280;11728;50.624;6.014;2023-03-14T16:19:06;97309.38;;;4.50;100.00
23118;BME280;11728;50.624;6.014;2023-03-14T16:24:06;97334.66;;;4.50;100.00
23118;BME280;11728;50.624;6.014;2023-03-14T16:29:07;97343.50;;;4.40;100.00
23118;BME280;11728;50.624;6.014;2023-03-14T16:34:08;97361.81;;;4.38;100.00
23118;BME280;11728;50.624;6.014;2023-03-14T16:39:09;97380.06;;;4.43;100.00
23118;BME280;11728;50.624;6.014;2023-03-14T16:44:09;97401.00;;;4.41;100.00
23118;BME280;11728;50.624;6.014;2023-03-14T16:49:09;97428.84;;;4.41;100.00
23118;BME280;11728;50.624;6.014;2023-03-14T16:54:10;97440.25;;;4.37;100.00
23118;BME280;11728;50.624;6.014;2023-03-14T16:59:10;97463.78;;;4.34;100.00
23118;BME280;11728;50.624;6.014;2023-03-14T17:04:10;97453.38;;;4.31;100.00
23118;BME280;11728;50.624;6.014;2023-03-14T17:09:11;97440.25;;;4.37;100.00
23118;BME280;11728;50.624;6.014;2023-03-14T17:14:11;97434.16;;;4.35;100.00
23118;BME280;11728;50.624;6.014;2023-03-14T17:19:12;97452.44;;;4.36;100.00
23118;BME280;11728;50.624;6.014;2023-03-14T17:24:12;97462.94;;;4.30;100.00
23118;BME280;11728;50.624;6.014;2023-03-14T17:29:12;97462.09;;;4.30;100.00
23118;BME280;11728;50.624;6.014;2023-03-14T17:34:13;97481.34;;;4.23;100.00
23118;BME280;11728;50.624;6.014;2023-03-14T17:39:13;97492.72;;;4.17;99.85
23118;BME280;11728;50.624;6.014;2023-03-14T17:44:13;97505.91;;;4.04;99.97
23118;BME280;11728;50.624;6.014;2023-03-14T17:49:14;97513.78;;;3.99;100.00
23118;BME280;11728;50.624;6.014;2023-03-14T17:54:14;97527.81;;;3.91;100.00
23118;BME280;11728;50.624;6.014;2023-03-14T17:59:15;97546.97;;;3.90;100.00
23118;BME280;11728;50.624;6.014;2023-03-14T18:04:15;97562.56;;;3.99;100.00
23118;BME280;11728;50.624;6.014;2023-03-14T18:09:17;97581.78;;;3.90;99.95
23118;BME280;11728;50.624;6.014;2023-03-14T18:14:17;97586.19;;;3.84;100.00
23118;BME280;11728;50.624;6.014;2023-03-14T18:19:18;97592.31;;;3.78;100.00
23118;BME280;11728;50.624;6.014;2023-03-14T18:24:19;97601.88;;;3.77;100.00
23118;BME280;11728;50.624;6.014;2023-03-14T18:29:20;97610.63;;;3.74;100.00
23118;BME280;11728;50.624;6.014;2023-03-14T18:34:20;97622.84;;;3.72;100.00
23118;BME280;11728;50.624;6.014;2023-03-14T18:39:21;97629.81;;;3.69;100.00
23118;BME280;11728;50.624;6.014;2023-03-14T18:44:21;97655.09;;;3.62;100.00
23118;BME280;11728;50.624;6.014;2023-03-14T18:49:21;97667.28;;;3.59;100.00
23118;BME280;11728;50.624;6.014;2023-03-14T18:54:22;97678.63;;;3.50;100.00
23118;BME280;11728;50.624;6.014;2023-03-14T18:59:22;97686.47;;;3.44;100.00
23118;BME280;11728;50.624;6.014;2023-03-14T19:04:22;97704.75;;;3.44;100.00
23118;BME280;11728;50.624;6.014;2023-03-14T19:09:23;97713.44;;;3.46;100.00
23118;BME280;11728;50.624;6.014;2023-03-14T19:14:23;97702.16;;;3.46;100.00
23118;BME280;11728;50.624;6.014;2023-03-14T19:19:24;97720.41;;;3.44;100.00
23118;BME280;11728;50.624;6.014;2023-03-14T19:24:24;97730.91;;;3.35;100.00
23118;BME280;11728;50.624;6.014;2023-03-14T19:29:24;97750.88;;;3.32;100.00
23118;BME280;11728;50.624;6.014;2023-03-14T19:34:25;97755.28;;;3.22;100.00
23118;BME280;11728;50.624;6.014;2023-03-14T19:39:25;97751.84;;;3.11;100.00
23118;BME280;11728;50.624;6.014;2023-03-14T19:44:26;97761.44;;;2.99;100.00
23118;BME280;11728;50.624;6.014;2023-03-14T19:49:26;97777.09;;;2.87;100.00
23118;BME280;11728;50.624;6.014;2023-03-14T19:54:27;97781.44;;;2.75;100.00
23118;BME280;11728;50.624;6.014;2023-03-14T19:59:27;97788.41;;;2.61;100.00
23118;BME280;11728;50.624;6.014;2023-03-14T20:04:28;97800.56;;;2.47;100.00
23118;BME280;11728;50.624;6.014;2023-03-14T20:09:28;97798.81;;;2.34;100.00
23118;BME280;11728;50.624;6.014;2023-03-14T20:14:29;97817.03;;;2.24;100.00
23118;BME280;11728;50.624;6.014;2023-03-14T20:19:29;97824.84;;;2.16;100.00
23118;BME280;11728;50.624;6.014;2023-03-14T20:24:30;97832.59;;;2.09;100.00
23118;BME280;11728;50.624;6.014;2023-03-14T20:29:31;97839.56;;;2.04;100.00
23118;BME280;11728;50.624;6.014;2023-03-14T20:34:32;97846.47;;;1.97;100.00
23118;BME280;11728;50.624;6.014;2023-03-14T20:39:33;97861.19;;;1.94;100.00
23118;BME280;11728;50.624;6.014;2023-03-14T20:44:34;97864.66;;;1.91;100.00
23118;BME280;11728;50.624;6.014;2023-03-14T20:49:34;97871.59;;;1.89;100.00
23118;BME280;11728;50.624;6.014;2023-03-14T20:54:34;97873.31;;;1.83;100.00
23118;BME280;11728;50.624;6.014;2023-03-14T20:59:35;97872.41;;;1.76;100.00
23118;BME280;11728;50.624;6.014;2023-03-14T21:04:36;97884.53;;;1.73;100.00
23118;BME280;11728;50.624;6.014;2023-03-14T21:09:37;97879.31;;;1.65;100.00
23118;BME280;11728;50.624;6.014;2023-03-14T21:14:37;97881.84;;;1.56;100.00
23118;BME280;11728;50.624;6.014;2023-03-14T21:19:37;97893.97;;;1.54;100.00
23118;BME280;11728;50.624;6.014;2023-03-14T21:24:39;97900.03;;;1.52;100.00
23118;BME280;11728;50.624;6.014;2023-03-14T21:29:40;97897.41;;;1.48;100.00
23118;BME280;11728;50.624;6.014;2023-03-14T21:34:40;97908.66;;;1.45;100.00
23118;BME280;11728;50.624;6.014;2023-03-14T21:39:41;97913.84;;;1.42;100.00
23118;BME280;11728;50.624;6.014;2023-03-14T21:44:41;97914.66;;;1.37;100.00
23118;BME280;11728;50.624;6.014;2023-03-14T21:49:48;97923.34;;;1.36;100.00
23118;BME280;11728;50.624;6.014;2023-03-14T21:54:49;97929.41;;;1.35;100.00
23118;BME280;11728;50.624;6.014;2023-03-14T21:59:49;97931.09;;;1.33;100.00
23118;BME280;11728;50.624;6.014;2023-03-14T22:04:50;97942.41;;;1.35;100.00
23118;BME280;11728;50.624;6.014;2023-03-14T22:09:51;97943.25;;;1.37;100.00
23118;BME280;11728;50.624;6.014;2023-03-14T22:14:52;97940.66;;;1.34;100.00
23118;BME280;11728;50.624;6.014;2023-03-14T22:19:52;97947.59;;;1.35;100.00
23118;BME280;11728;50.624;6.014;2023-03-14T22:24:53;97951.06;;;1.37;100.00
23118;BME280;11728;50.624;6.014;2023-03-14T22:29:53;97953.66;;;1.37;100.00
23118;BME280;11728;50.624;6.014;2023-03-14T22:34:53;97961.56;;;1.51;100.00
23118;BME280;11728;50.624;6.014;2023-03-14T22:39:54;97953.97;;;1.77;100.00
23118;BME280;11728;50.624;6.014;2023-03-14T22:44:54;97957.47;;;1.86;100.00
23118;BME280;11728;50.624;6.014;2023-03-14T22:49:54;97960.00;;;1.74;100.00
23118;BME280;11728;50.624;6.014;2023-03-14T22:54:55;97959.06;;;1.66;100.00
23118;BME280;11728;50.624;6.014;2023-03-14T22:59:55;97968.63;;;1.64;100.00
23118;BME280;11728;50.624;6.014;2023-03-14T23:04:55;97971.25;;;1.70;100.00
23118;BME280;11728;50.624;6.014;2023-03-14T23:09:56;97965.31;;;1.92;100.00
23118;BME280;11728;50.624;6.014;2023-03-14T23:14:56;97972.34;;;2.11;100.00
23118;BME280;11728;50.624;6.014;2023-03-14T23:19:57;97966.34;;;2.24;100.00
23118;BME280;11728;50.624;6.014;2023-03-14T23:24:59;97962.84;;;2.21;100.00
23118;BME280;11728;50.624;6.014;2023-03-14T23:30:01;97961.97;;;2.17;100.00
23118;BME280;11728;50.624;6.014;2023-03-14T23:35:01;97975.00;;;2.25;100.00
23118;BME280;11728;50.624;6.014;2023-03-14T23:40:02;97974.19;;;2.36;100.00
23118;BME280;11728;50.624;6.014;2023-03-14T23:45:05;97979.34;;;2.26;100.00
23118;BME280;11728;50.624;6.014;2023-03-14T23:50:06;97976.69;;;2.11;100.00
23118;BME280;11728;50.624;6.014;2023-03-14T23:55:07;97977.47;;;1.96;100.00
